SBOSBO BOS / KBOS
Speedbird OnlineSpeedbird Online BOS / KBOS

General Edward Lawrence Logan International Airport
07:40 -0°C

Location Boston, United States
Latitude: 42.36429977
Longitude: -71.00520325
Web Airport Website | Wikipedia
Altitude 6 Meter / 20 Feet
Distance 5,277 KM / 3,279 Miles
from London.
Time Zone UTC -5 hours (America/New_York)
Codes IATA: BOS
ICAO: KBOS
Currency £1 equals USD 1.24
Runways
RunwayLength (m)Surface
04L2396Asphalt
04R3050Asphalt
092134Asphalt
141524ASPH-G
15L779Asphalt
15R3073Asphalt
22L3050Asphalt
22R2396Asphalt
272134Asphalt
321524ASPH-G
33L3073Asphalt
33R779Asphalt
Radio
TypeDescriptionFrequency
APPBOSTON APP118.25
ATISATIS135
CLDCLNC DEL121.65
DEPBOSTON DEP133
GNDGND121.9
GTEGATE134.05
RDOBRIDGEPORT RDO122.4
TWRBOSTON TWR124.725
UNICUNICOM122.95
Live ATC
METAR KBOS 311205Z 34009KT 5SM -SN BR FEW015 OVC023 00/M02 A3015 RMK AO2 P0000 T00001017 $
TAF KBOS 311120Z 3112/0118 33012KT 4SM BR VCSH BKN008 OVC025 FM311400 32010G17KT P6SM BKN050 FM010200 35008KT P6SM SCT200 FM011100 34005KT P6SM SCT200
Weather As Of 31 Jan 2023 07:40
Description Snow
Wind 17 km/h from North (340°)
Cloud Cover 100%
Precipitation Rain: none, Snow: none
Sunrise 06:58
Sunset 16:55
Lounges American Airlines Admirals Club, Terminal B
British Airways Lounge (Open), Terminal E
Air France Lounge, Terminal E
Rotations During the last 90 days there were
201 flights from LHR
160 flights to LHR



Support Speedbird Online

© 2017-2023 Speedbird Online